createdAt,value
2018-12-26T00:00:57.179Z,27.00
2018-12-26T00:01:57.166Z,24.10
2018-12-26T00:02:57.158Z,25.40
2018-12-26T00:03:57.145Z,25.30
2018-12-26T00:04:57.137Z,24.60
2018-12-26T00:05:57.121Z,26.70
2018-12-26T00:06:57.113Z,25.20
2018-12-26T00:07:57.099Z,26.30
2018-12-26T00:08:57.089Z,23.10
2018-12-26T00:09:57.077Z,25.20
2018-12-26T00:10:57.068Z,27.90
2018-12-26T00:11:57.053Z,26.10
2018-12-26T00:12:57.043Z,25.40
2018-12-26T00:13:57.029Z,26.70
2018-12-26T00:14:57.022Z,26.40
2018-12-26T00:15:57.007Z,26.50
2018-12-26T00:16:56.997Z,25.60
2018-12-26T00:17:56.983Z,27.50
2018-12-26T00:18:56.974Z,26.10
2018-12-26T00:19:57.063Z,23.90
2018-12-26T00:20:56.951Z,27.50
2018-12-26T00:21:56.941Z,24.50
2018-12-26T00:22:56.929Z,24.90
2018-12-26T00:23:56.954Z,26.30
2018-12-26T00:24:56.907Z,25.80
2018-12-26T00:26:01.596Z,27.30
2018-12-26T00:26:56.884Z,24.90
2018-12-26T00:27:56.872Z,25.20
2018-12-26T00:28:56.860Z,26.10
2018-12-26T00:29:56.847Z,24.50
2018-12-26T00:30:56.838Z,25.20
2018-12-26T00:31:56.825Z,26.30
2018-12-26T00:32:56.816Z,23.20
2018-12-26T00:33:56.803Z,24.90
2018-12-26T00:34:56.793Z,25.10
2018-12-26T00:35:56.781Z,25.30
2018-12-26T00:36:56.770Z,23.70
2018-12-26T00:37:56.756Z,25.40
2018-12-26T00:38:56.748Z,23.70
2018-12-26T00:39:56.734Z,25.20
2018-12-26T00:40:56.725Z,26.60
2018-12-26T00:41:56.714Z,26.30
2018-12-26T00:42:56.701Z,25.80
2018-12-26T00:43:56.688Z,24.70
2018-12-26T00:44:56.678Z,26.30
2018-12-26T00:45:56.667Z,26.80
2018-12-26T00:46:56.656Z,26.00
2018-12-26T00:47:56.643Z,25.70
2018-12-26T00:48:56.632Z,24.60
2018-12-26T00:49:56.620Z,24.20
2018-12-26T00:50:56.610Z,27.00
2018-12-26T00:51:56.598Z,23.80
2018-12-26T00:52:56.586Z,25.80
2018-12-26T00:53:56.573Z,26.50
2018-12-26T00:54:56.565Z,24.30
2018-12-26T00:55:56.558Z,24.40
2018-12-26T00:56:56.541Z,24.50
2018-12-26T00:57:56.528Z,24.60
2018-12-26T00:58:56.519Z,25.40
2018-12-26T00:59:56.506Z,23.20
2018-12-26T01:00:56.496Z,18.80
2018-12-26T01:01:56.482Z,25.80
2018-12-26T01:02:56.473Z,27.50
2018-12-26T01:03:56.477Z,25.70
2018-12-26T01:04:56.449Z,26.70
2018-12-26T01:05:56.436Z,26.40
2018-12-26T01:06:56.426Z,25.40
2018-12-26T01:07:56.414Z,26.80
2018-12-26T01:08:56.403Z,26.50
2018-12-26T01:09:56.389Z,26.60
2018-12-26T01:10:56.396Z,27.60
2018-12-26T01:11:56.372Z,28.00
2018-12-26T01:12:56.357Z,27.20
2018-12-26T01:13:56.344Z,26.80
2018-12-26T01:14:56.335Z,27.30
2018-12-26T01:15:56.322Z,26.50
2018-12-26T01:16:56.318Z,26.60
2018-12-26T01:17:58.198Z,27.00
2018-12-26T01:18:56.292Z,30.40
2018-12-26T01:19:56.277Z,27.70
2018-12-26T01:20:56.265Z,26.60
2018-12-26T01:21:56.251Z,27.70
2018-12-26T01:22:56.246Z,26.70
2018-12-26T01:23:56.228Z,26.70
2018-12-26T01:24:56.218Z,28.50
2018-12-26T01:25:56.205Z,27.80
2018-12-26T01:26:56.196Z,28.50
2018-12-26T01:27:56.202Z,26.90
2018-12-26T01:28:56.173Z,29.00
2018-12-26T01:29:56.158Z,28.20
2018-12-26T01:30:56.149Z,28.70
2018-12-26T01:31:56.136Z,28.40
2018-12-26T01:32:56.125Z,27.20
2018-12-26T01:33:56.112Z,25.90
2018-12-26T01:34:56.103Z,28.50
2018-12-26T01:35:56.231Z,30.70
2018-12-26T01:36:56.081Z,26.50
2018-12-26T01:37:56.067Z,29.20
2018-12-26T01:38:56.059Z,29.10
2018-12-26T01:39:56.044Z,28.00
2018-12-26T01:40:56.034Z,28.40
2018-12-26T01:41:56.021Z,27.90
2018-12-26T01:42:56.012Z,31.60
2018-12-26T01:43:55.998Z,31.60
2018-12-26T01:44:55.990Z,24.80
2018-12-26T01:45:55.976Z,26.10
2018-12-26T01:46:55.967Z,28.90
2018-12-26T01:47:55.952Z,26.10
2018-12-26T01:48:55.941Z,28.40
2018-12-26T01:49:55.928Z,28.60
2018-12-26T01:50:55.919Z,29.50
2018-12-26T01:51:55.906Z,28.80
2018-12-26T01:52:55.895Z,29.90
2018-12-26T01:53:55.882Z,29.20
2018-12-26T01:54:55.872Z,30.10
2018-12-26T01:55:55.859Z,28.30
2018-12-26T01:56:55.851Z,30.80
2018-12-26T01:57:55.842Z,29.70
2018-12-26T01:58:55.826Z,29.50
2018-12-26T01:59:55.813Z,33.00
2018-12-26T02:00:55.803Z,29.50
2018-12-26T02:01:55.790Z,28.60
2018-12-26T02:02:55.781Z,29.40
2018-12-26T02:03:55.767Z,32.00
2018-12-26T02:04:55.758Z,30.40
2018-12-26T02:05:55.743Z,28.40
2018-12-26T02:06:55.734Z,31.20
2018-12-26T02:07:55.722Z,32.20
2018-12-26T02:08:55.711Z,29.70
2018-12-26T02:09:55.697Z,33.10
2018-12-26T02:10:55.688Z,30.70
2018-12-26T02:11:55.675Z,32.10
2018-12-26T02:12:55.665Z,31.70
2018-12-26T02:13:55.652Z,32.90
2018-12-26T02:14:55.644Z,32.70
2018-12-26T02:15:55.630Z,30.50
2018-12-26T02:16:55.619Z,32.50
2018-12-26T02:17:55.605Z,30.70
2018-12-26T02:18:55.597Z,32.40
2018-12-26T02:19:55.585Z,31.00
2018-12-26T02:20:55.575Z,30.90
2018-12-26T02:21:55.561Z,30.50
2018-12-26T02:22:55.552Z,31.80
2018-12-26T02:23:55.538Z,29.40
2018-12-26T02:24:55.529Z,28.50
2018-12-26T02:25:55.516Z,31.50
2018-12-26T02:26:55.507Z,31.90
2018-12-26T02:27:55.493Z,28.60
2018-12-26T02:28:55.484Z,32.70
2018-12-26T02:29:55.473Z,28.70
2018-12-26T02:30:55.467Z,33.30
2018-12-26T02:31:55.464Z,31.80
2018-12-26T02:32:55.439Z,34.40
2018-12-26T02:33:55.423Z,34.40
2018-12-26T02:34:55.415Z,29.90
2018-12-26T02:35:55.403Z,30.90
2018-12-26T02:36:55.510Z,31.30
2018-12-26T02:37:55.380Z,32.30
2018-12-26T02:38:55.368Z,31.70
2018-12-26T02:39:55.356Z,32.10
2018-12-26T02:40:55.345Z,32.00
2018-12-26T02:41:55.334Z,35.80
2018-12-26T02:42:55.322Z,32.90
2018-12-26T02:43:55.309Z,31.80
2018-12-26T02:44:55.299Z,32.30
2018-12-26T02:45:55.285Z,35.60
2018-12-26T02:46:55.279Z,28.90
2018-12-26T02:47:55.263Z,33.30
2018-12-26T02:48:55.253Z,33.20
2018-12-26T02:49:55.240Z,34.30
2018-12-26T02:50:55.232Z,33.00
2018-12-26T02:51:55.217Z,34.20
2018-12-26T02:52:55.206Z,34.20
2018-12-26T02:53:55.193Z,30.90
2018-12-26T02:54:55.193Z,31.10
2018-12-26T02:55:55.191Z,35.20
2018-12-26T02:56:55.160Z,35.10
2018-12-26T02:57:55.155Z,30.90
2018-12-26T02:58:55.141Z,33.90
2018-12-26T02:59:55.127Z,35.40
2018-12-26T03:00:55.119Z,32.60
2018-12-26T03:01:55.135Z,35.60
2018-12-26T03:02:55.090Z,32.50
2018-12-26T03:03:55.077Z,35.30
2018-12-26T03:04:55.070Z,34.30
2018-12-26T03:05:55.055Z,31.10
2018-12-26T03:06:55.043Z,37.10
2018-12-26T03:07:55.031Z,34.60
2018-12-26T03:08:55.020Z,35.50
2018-12-26T03:09:55.007Z,34.40
2018-12-26T03:10:55.000Z,33.90
2018-12-26T03:11:54.983Z,34.00
2018-12-26T03:12:54.974Z,33.90
2018-12-26T03:13:54.960Z,34.80
2018-12-26T03:14:54.951Z,34.40
2018-12-26T03:15:54.937Z,35.60
2018-12-26T03:16:54.928Z,34.30
2018-12-26T03:17:54.920Z,33.20
2018-12-26T03:18:54.906Z,35.00
2018-12-26T03:19:54.892Z,36.90
2018-12-26T03:20:54.882Z,37.70
2018-12-26T03:21:54.876Z,34.20
2018-12-26T03:22:54.858Z,36.40
2018-12-26T03:23:54.846Z,33.90
2018-12-26T03:24:54.839Z,34.40
2018-12-26T03:25:54.823Z,33.00
2018-12-26T03:26:56.362Z,27.20
2018-12-26T03:27:54.798Z,35.10
2018-12-26T03:28:54.788Z,35.50
2018-12-26T03:29:54.775Z,35.30
2018-12-26T03:30:54.766Z,36.20
2018-12-26T03:31:54.753Z,36.30
2018-12-26T03:32:54.745Z,38.40
2018-12-26T03:33:54.728Z,35.30
2018-12-26T03:34:54.720Z,35.90
2018-12-26T03:35:54.705Z,37.10
2018-12-26T03:36:54.696Z,34.60
2018-12-26T03:37:54.682Z,34.70
2018-12-26T03:38:54.672Z,35.10
2018-12-26T03:39:54.662Z,36.20
2018-12-26T03:40:54.654Z,35.10
2018-12-26T03:41:54.637Z,29.50
2018-12-26T03:42:54.627Z,34.00
2018-12-26T03:43:54.613Z,35.80
2018-12-26T03:44:54.604Z,36.30
2018-12-26T03:45:54.589Z,24.90
2018-12-26T03:46:54.586Z,36.30
2018-12-26T03:47:54.566Z,28.80
2018-12-26T03:48:54.556Z,30.30
2018-12-26T03:49:54.551Z,32.90
2018-12-26T03:50:54.535Z,36.10
2018-12-26T03:51:54.522Z,35.10
2018-12-26T03:52:54.509Z,35.90
2018-12-26T03:53:54.497Z,21.40
2018-12-26T03:54:54.490Z,33.50
2018-12-26T03:55:54.474Z,33.30
2018-12-26T03:56:54.460Z,36.70
2018-12-26T03:57:54.451Z,35.80
2018-12-26T03:58:54.451Z,27.40
2018-12-26T03:59:54.523Z,37.40
2018-12-26T04:00:54.413Z,35.20
2018-12-26T04:01:54.404Z,37.10
2018-12-26T04:02:54.389Z,33.90
2018-12-26T04:03:54.380Z,36.70
2018-12-26T04:04:54.365Z,38.40
2018-12-26T04:05:54.362Z,37.00
2018-12-26T04:06:54.342Z,39.20
2018-12-26T04:07:54.334Z,32.90
2018-12-26T04:08:54.317Z,35.40
2018-12-26T04:09:54.308Z,35.00
2018-12-26T04:10:54.294Z,26.00
2018-12-26T04:11:54.285Z,28.60
2018-12-26T04:12:54.270Z,33.20
2018-12-26T04:13:54.260Z,27.80
2018-12-26T04:14:54.249Z,28.40
2018-12-26T04:15:54.238Z,31.40
2018-12-26T04:16:54.222Z,35.70
2018-12-26T04:17:54.214Z,36.80
2018-12-26T04:18:54.199Z,32.70
2018-12-26T04:19:54.189Z,37.50
2018-12-26T04:20:54.174Z,20.70
2018-12-26T04:21:54.165Z,34.60
2018-12-26T04:22:54.151Z,36.80
2018-12-26T04:23:54.140Z,34.70
2018-12-26T04:24:54.129Z,29.90
2018-12-26T04:25:54.116Z,27.80
2018-12-26T04:26:54.103Z,34.50
2018-12-26T04:27:54.095Z,35.10
2018-12-26T04:28:54.080Z,38.70
2018-12-26T04:29:54.069Z,34.30
2018-12-26T04:30:54.054Z,35.00
2018-12-26T04:31:54.044Z,33.00
2018-12-26T04:32:54.029Z,34.80
2018-12-26T04:33:54.019Z,40.50
2018-12-26T04:34:54.011Z,35.40
2018-12-26T04:35:53.997Z,35.60
2018-12-26T04:36:53.981Z,33.80
2018-12-26T04:37:53.971Z,30.70
2018-12-26T04:38:53.957Z,34.50
2018-12-26T04:39:53.947Z,38.10
2018-12-26T04:40:53.934Z,31.80
2018-12-26T04:41:53.924Z,36.10
2018-12-26T04:42:53.909Z,34.90
2018-12-26T04:43:53.901Z,26.90
2018-12-26T04:44:53.889Z,25.00
2018-12-26T04:45:53.875Z,31.80
2018-12-26T04:46:53.861Z,35.50
2018-12-26T04:47:53.853Z,37.50
2018-12-26T04:48:53.837Z,38.10
2018-12-26T04:49:53.830Z,37.90
2018-12-26T04:50:53.813Z,30.00
2018-12-26T04:51:53.804Z,37.30
2018-12-26T04:52:53.791Z,29.80
2018-12-26T04:53:53.780Z,36.90
2018-12-26T04:54:53.774Z,37.50
2018-12-26T04:55:53.755Z,37.30
2018-12-26T04:56:53.741Z,39.70
2018-12-26T04:57:53.732Z,36.90
2018-12-26T04:58:53.725Z,37.80
2018-12-26T04:59:53.711Z,37.90
2018-12-26T05:00:53.693Z,37.30
2018-12-26T05:01:53.683Z,37.20
2018-12-26T05:02:53.675Z,36.90
2018-12-26T05:03:53.661Z,38.10
2018-12-26T05:04:53.645Z,37.20
2018-12-26T05:05:53.640Z,36.00
2018-12-26T05:06:53.633Z,35.40
2018-12-26T05:07:53.613Z,39.00
2018-12-26T05:08:53.598Z,38.80
2018-12-26T05:09:53.592Z,35.50
2018-12-26T05:10:53.578Z,41.40
2018-12-26T05:11:53.581Z,36.30
2018-12-26T05:12:53.552Z,37.90
2018-12-26T05:13:53.542Z,36.90
2018-12-26T05:14:53.535Z,34.00
2018-12-26T05:15:53.520Z,39.10
2018-12-26T05:16:53.507Z,39.20
2018-12-26T05:17:53.495Z,38.90
2018-12-26T05:18:53.526Z,39.20
2018-12-26T05:19:53.473Z,37.70
2018-12-26T05:20:53.457Z,40.30
2018-12-26T05:21:53.452Z,37.10
2018-12-26T05:22:53.434Z,35.10
2018-12-26T05:23:53.425Z,41.10
2018-12-26T05:24:53.411Z,41.60
2018-12-26T05:25:53.401Z,38.70
2018-12-26T05:26:53.462Z,40.40
2018-12-26T05:27:53.378Z,38.40
2018-12-26T05:28:53.364Z,38.30
2018-12-26T05:29:53.354Z,38.70
2018-12-26T05:30:53.340Z,39.10
2018-12-26T05:31:53.332Z,41.20
2018-12-26T05:32:53.317Z,37.60
2018-12-26T05:33:53.308Z,39.00
2018-12-26T05:34:53.294Z,26.90
2018-12-26T05:35:53.285Z,30.20
2018-12-26T05:36:53.270Z,39.80
2018-12-26T05:37:53.261Z,39.00
2018-12-26T05:38:53.284Z,39.60
2018-12-26T05:39:53.238Z,38.70
2018-12-26T05:40:53.223Z,44.20
2018-12-26T05:41:53.217Z,37.90
2018-12-26T05:42:53.200Z,40.70
2018-12-26T05:43:53.193Z,41.30
2018-12-26T05:44:53.176Z,39.40
2018-12-26T05:45:53.167Z,41.50
2018-12-26T05:46:53.153Z,40.30
2018-12-26T05:47:53.143Z,40.30
2018-12-26T05:48:53.129Z,43.00
2018-12-26T05:49:53.119Z,43.00
2018-12-26T05:50:53.106Z,41.20
2018-12-26T05:51:53.096Z,35.60
2018-12-26T05:52:53.081Z,42.00
2018-12-26T05:53:53.071Z,41.80
2018-12-26T05:54:53.062Z,42.00
2018-12-26T05:55:53.049Z,42.00
2018-12-26T05:56:53.033Z,32.90
2018-12-26T05:57:53.024Z,41.30
2018-12-26T05:58:53.010Z,43.30
2018-12-26T05:59:53.000Z,35.60
2018-12-26T06:00:52.985Z,39.80
2018-12-26T06:01:52.975Z,37.10
2018-12-26T06:02:52.961Z,46.90
2018-12-26T06:03:52.952Z,47.00
2018-12-26T06:04:52.936Z,46.00
2018-12-26T06:05:52.926Z,47.80
2018-12-26T06:06:52.913Z,49.10
2018-12-26T06:07:52.903Z,43.40
2018-12-26T06:08:52.887Z,48.80
2018-12-26T06:09:52.879Z,38.30
2018-12-26T06:10:52.864Z,51.80
2018-12-26T06:11:52.854Z,47.70
2018-12-26T06:12:52.839Z,45.10
2018-12-26T06:13:52.829Z,53.80
2018-12-26T06:14:52.819Z,54.10
2018-12-26T06:15:52.809Z,57.40
2018-12-26T06:16:52.791Z,55.00
2018-12-26T06:17:52.832Z,54.60
2018-12-26T06:18:52.767Z,46.60
2018-12-26T06:19:52.756Z,51.80
2018-12-26T06:20:52.741Z,52.30
2018-12-26T06:21:52.731Z,49.10
2018-12-26T06:22:52.722Z,56.20
2018-12-26T06:23:52.727Z,54.90
2018-12-26T06:24:52.692Z,58.90
2018-12-26T06:25:52.684Z,55.40
2018-12-26T06:26:52.668Z,54.70
2018-12-26T06:27:52.666Z,52.20
2018-12-26T06:28:52.646Z,54.30
2018-12-26T06:29:52.634Z,56.40
2018-12-26T06:30:52.620Z,56.30
2018-12-26T06:31:52.611Z,61.30
2018-12-26T06:32:52.595Z,57.70
2018-12-26T06:33:52.586Z,58.10
2018-12-26T06:34:52.572Z,56.20
2018-12-26T06:35:52.563Z,50.50
2018-12-26T06:36:52.548Z,55.60
2018-12-26T06:37:52.540Z,56.20
2018-12-26T06:38:52.524Z,56.50
2018-12-26T06:39:52.515Z,50.20
2018-12-26T06:40:52.503Z,57.90
2018-12-26T06:41:52.490Z,50.40
2018-12-26T06:42:52.478Z,51.60
2018-12-26T06:43:52.466Z,50.10
2018-12-26T06:44:52.452Z,47.40
2018-12-26T06:45:52.441Z,48.30
2018-12-26T06:46:52.427Z,53.30
2018-12-26T06:47:52.426Z,43.70
2018-12-26T06:48:52.402Z,54.30
2018-12-26T06:49:52.495Z,55.00
2018-12-26T06:50:52.379Z,56.80
2018-12-26T06:51:52.368Z,52.00
2018-12-26T06:52:52.354Z,55.60
2018-12-26T06:53:52.344Z,51.30
2018-12-26T06:54:52.330Z,48.80
2018-12-26T06:55:52.328Z,46.70
2018-12-26T06:56:52.305Z,48.10
2018-12-26T06:57:59.839Z,52.70
2018-12-26T06:58:52.282Z,46.80
2018-12-26T06:59:52.272Z,41.40
2018-12-26T07:00:52.257Z,52.50
2018-12-26T07:01:52.248Z,52.50
2018-12-26T07:02:52.233Z,52.80
2018-12-26T07:03:52.224Z,50.10
2018-12-26T07:04:52.209Z,52.00
2018-12-26T07:05:52.199Z,53.20
2018-12-26T07:06:52.185Z,38.10
2018-12-26T07:07:52.176Z,51.50
2018-12-26T07:08:52.161Z,51.70
2018-12-26T07:09:52.151Z,52.50
2018-12-26T07:10:52.137Z,54.90
2018-12-26T07:11:52.129Z,53.60
2018-12-26T07:12:52.118Z,54.90
2018-12-26T07:13:52.103Z,48.90
2018-12-26T07:14:52.089Z,53.50
2018-12-26T07:15:52.176Z,49.60
2018-12-26T07:16:52.065Z,56.40
2018-12-26T07:17:52.055Z,50.00
2018-12-26T07:18:52.041Z,49.40
2018-12-26T07:19:52.032Z,46.30
2018-12-26T07:20:52.017Z,51.90
2018-12-26T07:21:52.008Z,52.10
2018-12-26T07:22:51.997Z,52.30
2018-12-26T07:23:51.985Z,51.80
2018-12-26T07:24:51.969Z,45.10
2018-12-26T07:25:51.960Z,54.30
2018-12-26T07:26:51.945Z,52.40
2018-12-26T07:27:51.936Z,46.40
2018-12-26T07:28:51.921Z,49.30
2018-12-26T07:29:51.911Z,50.00
2018-12-26T07:30:51.897Z,55.20
2018-12-26T07:31:51.887Z,57.60
2018-12-26T07:32:51.874Z,46.30
2018-12-26T07:33:51.864Z,51.70
2018-12-26T07:34:51.848Z,57.60
2018-12-26T07:35:51.839Z,51.90
2018-12-26T07:36:51.823Z,57.20
2018-12-26T07:37:51.816Z,50.30
2018-12-26T07:38:51.806Z,56.10
2018-12-26T07:39:51.798Z,50.60
2018-12-26T07:40:51.777Z,50.30
2018-12-26T07:41:51.765Z,42.60
2018-12-26T07:42:51.751Z,49.30
2018-12-26T07:43:51.747Z,57.30
2018-12-26T07:44:51.726Z,51.20
2018-12-26T07:45:51.716Z,47.80
2018-12-26T07:46:51.702Z,55.40
2018-12-26T07:47:51.694Z,58.50
2018-12-26T07:48:51.677Z,51.80
2018-12-26T07:49:51.667Z,55.20
2018-12-26T07:50:51.656Z,57.00
2018-12-26T07:51:51.646Z,58.90
2018-12-26T07:52:51.630Z,62.70
2018-12-26T07:53:51.619Z,62.70
2018-12-26T07:54:51.605Z,68.80
2018-12-26T07:55:51.595Z,64.10
2018-12-26T07:56:51.581Z,58.50
2018-12-26T07:57:51.570Z,68.40
2018-12-26T07:58:51.558Z,66.30
2018-12-26T07:59:51.546Z,61.80
2018-12-26T08:00:51.531Z,60.30
2018-12-26T08:01:51.521Z,70.70
2018-12-26T08:02:51.507Z,50.00
2018-12-26T08:03:51.497Z,73.30
2018-12-26T08:04:51.483Z,52.00
2018-12-26T08:05:51.473Z,60.70
2018-12-26T08:06:51.459Z,73.70
2018-12-26T08:07:51.451Z,68.90
2018-12-26T08:08:51.434Z,61.50
2018-12-26T08:09:51.425Z,66.60
2018-12-26T08:10:51.412Z,75.80
2018-12-26T08:11:51.401Z,58.60
2018-12-26T08:12:51.387Z,82.30
2018-12-26T08:13:51.377Z,82.90
2018-12-26T08:14:51.364Z,79.40
2018-12-26T08:15:51.349Z,88.20
2018-12-26T08:16:53.304Z,75.90
2018-12-26T08:17:51.324Z,86.10
2018-12-26T08:18:51.315Z,80.80
2018-12-26T08:19:51.301Z,75.90
2018-12-26T08:20:51.290Z,84.40
2018-12-26T08:21:51.276Z,90.10
2018-12-26T08:22:51.266Z,51.80
2018-12-26T08:23:51.252Z,76.80
2018-12-26T08:24:51.242Z,76.60
2018-12-26T08:25:51.228Z,76.90
2018-12-26T08:26:51.218Z,61.70
2018-12-26T08:27:51.204Z,68.20
2018-12-26T08:28:51.193Z,86.30
2018-12-26T08:29:51.178Z,64.70
2018-12-26T08:30:51.169Z,63.80
2018-12-26T08:31:51.154Z,82.10
2018-12-26T08:32:51.144Z,82.00
2018-12-26T08:33:51.131Z,76.60
2018-12-26T08:34:51.121Z,75.80
2018-12-26T08:35:51.107Z,78.90
2018-12-26T08:36:51.095Z,91.30
2018-12-26T08:37:51.088Z,72.80
2018-12-26T08:38:51.072Z,83.60
2018-12-26T08:39:51.057Z,87.80
2018-12-26T08:40:51.047Z,76.70
2018-12-26T08:41:51.033Z,89.70
2018-12-26T08:42:51.023Z,83.70
2018-12-26T08:43:51.009Z,86.00
2018-12-26T08:44:50.998Z,95.60
2018-12-26T08:45:50.984Z,78.50
2018-12-26T08:46:50.976Z,94.50
2018-12-26T08:47:50.961Z,80.00
2018-12-26T08:48:50.951Z,82.20
2018-12-26T08:49:50.936Z,77.90
2018-12-26T08:50:50.927Z,73.80
2018-12-26T08:51:50.915Z,64.70
2018-12-26T08:52:50.903Z,83.90
2018-12-26T08:53:50.892Z,69.30
2018-12-26T08:54:50.888Z,75.80
2018-12-26T08:55:50.865Z,84.90
2018-12-26T08:56:50.855Z,91.60
2018-12-26T08:57:50.840Z,94.20
2018-12-26T08:58:50.833Z,85.50
2018-12-26T08:59:50.832Z,66.70
2018-12-26T09:00:50.807Z,67.10
2018-12-26T09:01:50.792Z,88.30
2018-12-26T09:02:50.783Z,79.30
2018-12-26T09:03:50.769Z,92.80
2018-12-26T09:04:50.759Z,73.20
2018-12-26T09:05:50.745Z,84.20
2018-12-26T09:06:50.735Z,91.00
2018-12-26T09:07:50.721Z,86.00
2018-12-26T09:08:50.711Z,91.20
2018-12-26T09:09:50.697Z,78.10
2018-12-26T09:10:50.688Z,83.50
2018-12-26T09:11:50.675Z,93.90
2018-12-26T09:12:50.663Z,75.30
2018-12-26T09:13:50.649Z,79.50
2018-12-26T09:14:50.640Z,87.20
2018-12-26T09:15:50.627Z,87.00
2018-12-26T09:16:50.618Z,93.60
2018-12-26T09:17:50.604Z,86.50
2018-12-26T09:18:50.594Z,85.90
2018-12-26T09:19:50.581Z,87.80
2018-12-26T09:20:50.569Z,84.00
2018-12-26T09:21:50.556Z,80.80
2018-12-26T09:22:50.546Z,85.80
2018-12-26T09:23:50.533Z,83.90
2018-12-26T09:24:50.532Z,85.70
2018-12-26T09:25:50.509Z,84.20
2018-12-26T09:26:50.499Z,77.40
2018-12-26T09:27:50.487Z,78.50
2018-12-26T09:28:50.476Z,85.60
2018-12-26T09:29:50.462Z,71.50
2018-12-26T09:30:50.453Z,74.90
2018-12-26T09:31:50.439Z,74.20
2018-12-26T09:32:50.429Z,68.60
2018-12-26T09:33:50.665Z,84.80
2018-12-26T09:34:50.406Z,83.50
2018-12-26T09:35:50.393Z,72.70
2018-12-26T09:36:50.386Z,74.20
2018-12-26T09:37:50.369Z,90.40
2018-12-26T09:38:50.359Z,78.40
2018-12-26T09:39:50.346Z,92.90
2018-12-26T09:40:50.335Z,88.10
2018-12-26T09:41:50.322Z,71.80
2018-12-26T09:42:50.313Z,85.90
2018-12-26T09:43:50.299Z,79.60
2018-12-26T09:44:54.437Z,83.80
2018-12-26T09:45:50.276Z,84.70
2018-12-26T09:46:50.267Z,91.50
2018-12-26T09:47:50.254Z,77.30
2018-12-26T09:48:50.243Z,70.20
2018-12-26T09:49:50.231Z,66.30
2018-12-26T09:50:50.221Z,71.20
2018-12-26T09:51:50.207Z,86.20
2018-12-26T09:52:50.197Z,91.60
2018-12-26T09:53:50.184Z,84.40
2018-12-26T09:54:50.175Z,79.30
2018-12-26T09:55:50.161Z,91.60
2018-12-26T09:56:50.152Z,80.10
2018-12-26T09:57:50.138Z,78.20
2018-12-26T09:58:52.660Z,92.20
2018-12-26T09:59:50.117Z,77.50
2018-12-26T10:00:50.105Z,83.80
2018-12-26T10:01:50.092Z,84.10
2018-12-26T10:02:50.083Z,82.60
2018-12-26T10:03:50.071Z,84.70
2018-12-26T10:04:50.060Z,83.50
2018-12-26T10:05:50.047Z,92.60
2018-12-26T10:06:50.038Z,86.00
2018-12-26T10:07:50.026Z,82.20
2018-12-26T10:08:50.015Z,86.80
2018-12-26T10:09:50.002Z,86.90
2018-12-26T10:10:49.993Z,82.40
2018-12-26T10:11:49.980Z,84.60
2018-12-26T10:12:49.974Z,80.20
2018-12-26T10:13:50.892Z,88.40
2018-12-26T10:14:49.949Z,82.80
2018-12-26T10:15:49.935Z,67.20
2018-12-26T10:16:49.925Z,69.20
2018-12-26T10:17:49.914Z,84.80
2018-12-26T10:18:49.917Z,82.30
2018-12-26T10:19:50.283Z,97.80
2018-12-26T10:20:49.882Z,98.10
2018-12-26T10:21:49.867Z,82.30
2018-12-26T10:22:49.859Z,82.80
2018-12-26T10:23:49.846Z,90.70
2018-12-26T10:24:49.836Z,86.10
2018-12-26T10:25:49.824Z,86.00
2018-12-26T10:26:49.817Z,98.70
2018-12-26T10:27:49.801Z,92.20
2018-12-26T10:28:49.790Z,94.00
2018-12-26T10:29:49.777Z,96.20
2018-12-26T10:30:49.768Z,96.10
2018-12-26T10:31:49.756Z,100.10
2018-12-26T10:32:50.047Z,73.50
2018-12-26T10:33:49.733Z,98.80
2018-12-26T10:34:49.725Z,93.80
2018-12-26T10:35:49.711Z,96.60
2018-12-26T10:36:49.701Z,90.70
2018-12-26T10:37:49.688Z,92.70
2018-12-26T10:38:49.680Z,104.70
2018-12-26T10:39:49.666Z,101.10
2018-12-26T10:40:49.656Z,100.80
2018-12-26T10:41:49.643Z,108.30
2018-12-26T10:42:49.634Z,103.80
2018-12-26T10:43:49.621Z,105.70
2018-12-26T10:44:49.611Z,103.20
2018-12-26T10:45:49.598Z,101.10
2018-12-26T10:46:49.589Z,106.30
2018-12-26T10:47:49.580Z,93.20
2018-12-26T10:48:49.566Z,104.70
2018-12-26T10:49:49.552Z,93.10
2018-12-26T10:50:49.544Z,104.00
2018-12-26T10:51:49.532Z,105.50
2018-12-26T10:52:49.520Z,107.00
2018-12-26T10:53:49.508Z,87.50
2018-12-26T10:54:49.500Z,92.50
2018-12-26T10:55:49.485Z,93.50
2018-12-26T10:56:49.475Z,90.70
2018-12-26T10:57:49.463Z,87.40
2018-12-26T10:58:49.454Z,88.00
2018-12-26T10:59:49.441Z,82.20
2018-12-26T11:00:49.434Z,97.40
2018-12-26T11:01:49.416Z,70.30
2018-12-26T11:02:49.409Z,86.30
2018-12-26T11:03:49.395Z,100.70
2018-12-26T11:04:49.385Z,94.30
2018-12-26T11:05:49.371Z,86.20
2018-12-26T11:06:49.361Z,80.30
2018-12-26T11:07:49.348Z,93.70
2018-12-26T11:08:49.339Z,86.20
2018-12-26T11:09:49.329Z,95.60
2018-12-26T11:10:49.316Z,84.50
2018-12-26T11:11:49.303Z,69.40
2018-12-26T11:12:49.294Z,78.10
2018-12-26T11:13:49.281Z,64.90
2018-12-26T11:14:49.270Z,72.80
2018-12-26T11:15:49.257Z,92.50
2018-12-26T11:16:49.248Z,77.60
2018-12-26T11:17:49.237Z,80.00
2018-12-26T11:18:49.225Z,90.40
2018-12-26T11:19:49.211Z,87.70
2018-12-26T11:20:49.201Z,92.80
2018-12-26T11:21:49.189Z,91.80
2018-12-26T11:22:49.180Z,88.70
2018-12-26T11:23:49.165Z,87.80
2018-12-26T11:24:49.155Z,94.20
2018-12-26T11:25:49.142Z,86.60
2018-12-26T11:26:49.135Z,81.00
2018-12-26T11:27:49.120Z,95.80
2018-12-26T11:28:49.208Z,89.90
2018-12-26T11:29:49.101Z,73.80
2018-12-26T11:30:49.087Z,98.20
2018-12-26T11:31:49.074Z,72.30
2018-12-26T11:32:49.065Z,69.10
2018-12-26T11:33:49.063Z,83.40
2018-12-26T11:34:49.042Z,84.90
2018-12-26T11:35:49.029Z,84.10
2018-12-26T11:36:49.018Z,89.80
2018-12-26T11:37:49.005Z,90.00
2018-12-26T11:38:49.007Z,85.80
2018-12-26T11:39:48.983Z,89.30
2018-12-26T11:40:48.973Z,79.80
2018-12-26T11:41:48.959Z,94.60
2018-12-26T11:42:48.951Z,100.70
2018-12-26T11:43:48.937Z,96.10
2018-12-26T11:44:48.927Z,94.40
2018-12-26T11:45:48.914Z,63.60
2018-12-26T11:46:48.904Z,96.40
2018-12-26T11:47:48.891Z,93.90
2018-12-26T11:48:48.881Z,88.20
2018-12-26T11:49:48.868Z,50.00
2018-12-26T11:50:48.859Z,96.00
2018-12-26T11:51:48.846Z,98.40
2018-12-26T11:52:48.836Z,100.40
2018-12-26T11:53:48.823Z,98.10
2018-12-26T11:54:48.813Z,89.20
2018-12-26T11:55:48.801Z,85.20
2018-12-26T11:56:48.789Z,66.00
2018-12-26T11:57:48.776Z,117.00
2018-12-26T11:58:48.767Z,111.30
2018-12-26T11:59:48.756Z,106.40
2018-12-26T12:00:48.744Z,91.40
2018-12-26T12:01:48.733Z,100.30
2018-12-26T12:02:48.722Z,97.20
2018-12-26T12:03:48.708Z,78.00
2018-12-26T12:04:48.698Z,101.90
2018-12-26T12:05:48.685Z,87.80
2018-12-26T12:06:48.678Z,106.70
2018-12-26T12:07:48.663Z,107.30
2018-12-26T12:08:48.653Z,95.20
2018-12-26T12:09:48.639Z,102.20
2018-12-26T12:10:50.167Z,51.30
2018-12-26T12:11:48.618Z,106.40
2018-12-26T12:12:48.608Z,103.10
2018-12-26T12:13:48.595Z,74.00
2018-12-26T12:14:48.587Z,102.90
2018-12-26T12:15:48.572Z,91.10
2018-12-26T12:16:48.563Z,105.10
2018-12-26T12:17:48.550Z,98.90
2018-12-26T12:18:48.541Z,106.60
2018-12-26T12:19:48.528Z,108.40
2018-12-26T12:20:48.520Z,95.90
2018-12-26T12:21:48.505Z,99.90
2018-12-26T12:22:48.496Z,109.50
2018-12-26T12:23:48.483Z,110.60
2018-12-26T12:24:48.474Z,112.00
2018-12-26T12:25:48.463Z,108.50
2018-12-26T12:26:48.451Z,104.20
2018-12-26T12:27:48.441Z,99.50
2018-12-26T12:28:48.428Z,102.40
2018-12-26T12:29:48.419Z,109.10
2018-12-26T12:30:48.406Z,115.70
2018-12-26T12:31:48.397Z,114.90
2018-12-26T12:32:48.384Z,122.40
2018-12-26T12:33:48.375Z,114.60
2018-12-26T12:34:48.361Z,109.00
2018-12-26T12:35:48.354Z,113.60
2018-12-26T12:36:48.339Z,111.70
2018-12-26T12:37:48.330Z,101.20
2018-12-26T12:38:48.320Z,121.10
2018-12-26T12:39:48.311Z,118.50
2018-12-26T12:40:48.295Z,101.70
2018-12-26T12:41:48.286Z,122.80
2018-12-26T12:42:48.274Z,116.50
2018-12-26T12:43:48.265Z,117.70
2018-12-26T12:44:48.251Z,107.90
2018-12-26T12:45:48.250Z,109.10
2018-12-26T12:46:48.233Z,135.90
2018-12-26T12:47:48.222Z,131.00
2018-12-26T12:48:48.207Z,125.10
2018-12-26T12:49:48.202Z,131.20
2018-12-26T12:50:48.186Z,118.30